createdAt,value
2022-10-21T00:01:42.827Z,9.88
2022-10-21T00:04:14.816Z,9.82
2022-10-21T00:06:46.919Z,10.55
2022-10-21T00:09:16.123Z,9.13
2022-10-21T00:11:45.192Z,11.18
2022-10-21T00:14:14.310Z,9.65
2022-10-21T00:16:43.747Z,8.25
2022-10-21T00:19:12.826Z,9.13
2022-10-21T00:21:42.500Z,8.95
2022-10-21T00:24:13.048Z,9.80
2022-10-21T00:26:42.126Z,8.63
2022-10-21T00:29:11.669Z,9.50
2022-10-21T00:31:40.854Z,10.27
2022-10-21T00:34:10.220Z,10.60
2022-10-21T00:36:39.450Z,9.55
2022-10-21T00:39:08.460Z,9.57
2022-10-21T00:41:39.173Z,9.98
2022-10-21T00:44:12.600Z,9.20
2022-10-21T00:46:47.482Z,9.85
2022-10-21T00:49:19.573Z,9.35
2022-10-21T00:51:54.255Z,11.23
2022-10-21T00:54:24.899Z,9.23
2022-10-21T00:56:58.867Z,8.65
2022-10-21T00:59:29.557Z,8.50
2022-10-21T01:01:58.969Z,7.63
2022-10-21T01:04:27.915Z,7.88
2022-10-21T01:06:57.232Z,7.70
2022-10-21T01:09:26.485Z,7.80
2022-10-21T01:11:57.028Z,9.80
2022-10-21T01:14:34.248Z,10.13
2022-10-21T01:17:20.478Z,13.02
2022-10-21T01:20:14.742Z,12.63
2022-10-21T01:23:02.033Z,12.27
2022-10-21T01:25:42.091Z,14.05
2022-10-21T01:28:18.963Z,14.07
2022-10-21T01:30:53.519Z,13.18
2022-10-21T01:33:38.940Z,15.07
2022-10-21T01:36:12.525Z,14.95
2022-10-21T01:38:46.283Z,14.43
2022-10-21T01:41:18.194Z,17.33
2022-10-21T01:43:49.783Z,16.10
2022-10-21T01:46:24.808Z,12.48
2022-10-21T01:48:56.311Z,12.43
2022-10-21T01:54:02.266Z,13.07
2022-10-21T01:56:32.463Z,10.83
2022-10-21T01:59:03.317Z,12.85
2022-10-21T02:01:34.568Z,12.77
2022-10-21T02:04:05.140Z,13.57
2022-10-21T02:06:34.228Z,13.15
2022-10-21T02:09:03.388Z,14.70
2022-10-21T02:11:34.686Z,13.85
2022-10-21T02:14:05.107Z,15.48
2022-10-21T02:16:37.596Z,14.93
2022-10-21T02:19:07.859Z,14.60
2022-10-21T02:21:38.608Z,14.57
2022-10-21T02:24:08.909Z,15.55
2022-10-21T02:26:40.759Z,15.55
2022-10-21T02:29:10.003Z,13.60
2022-10-21T02:31:46.089Z,15.20
2022-10-21T02:34:19.938Z,12.85
2022-10-21T02:36:53.147Z,14.25
2022-10-21T02:39:25.696Z,12.52
2022-10-21T02:41:56.235Z,13.20
2022-10-21T02:44:25.429Z,12.63
2022-10-21T02:46:55.804Z,15.05
2022-10-21T02:49:25.173Z,13.68
2022-10-21T02:51:54.408Z,14.45
2022-10-21T02:54:23.749Z,14.13
2022-10-21T02:56:52.642Z,14.75
2022-10-21T02:59:21.661Z,14.63
2022-10-21T03:01:51.158Z,16.60
2022-10-21T03:04:21.563Z,19.40
2022-10-21T03:06:50.719Z,22.58
2022-10-21T03:09:19.852Z,24.17
2022-10-21T03:11:51.204Z,23.67
2022-10-21T03:14:23.791Z,22.25
2022-10-21T03:16:52.708Z,22.67
2022-10-21T03:19:23.678Z,23.92
2022-10-21T03:21:52.758Z,24.35
2022-10-21T03:24:28.580Z,21.48
2022-10-21T03:26:58.209Z,20.50
2022-10-21T03:29:27.214Z,22.05
2022-10-21T03:31:56.249Z,21.55
2022-10-21T03:34:26.750Z,22.75
2022-10-21T03:36:55.669Z,21.13
2022-10-21T03:39:24.564Z,24.17
2022-10-21T03:41:53.544Z,21.67
2022-10-21T03:44:24.757Z,21.80
2022-10-21T03:46:53.856Z,23.40
2022-10-21T03:49:23.545Z,22.27
2022-10-21T03:51:53.948Z,20.52
2022-10-21T03:54:22.924Z,22.50
2022-10-21T03:56:52.092Z,22.42
2022-10-21T03:59:24.098Z,21.58
2022-10-21T04:01:53.756Z,21.27
2022-10-21T04:04:23.172Z,21.17
2022-10-21T04:06:52.326Z,20.88
2022-10-21T04:09:22.836Z,21.38
2022-10-21T04:11:51.969Z,21.38
2022-10-21T04:14:21.133Z,21.65
2022-10-21T04:17:02.046Z,21.83
2022-10-21T04:19:32.475Z,19.17
2022-10-21T04:22:02.760Z,21.42
2022-10-21T04:24:36.253Z,22.05
2022-10-21T04:27:05.535Z,20.75
2022-10-21T04:29:36.067Z,20.52
2022-10-21T04:32:05.632Z,24.15
2022-10-21T04:34:40.342Z,19.55
2022-10-21T04:37:10.451Z,22.38
2022-10-21T04:39:41.153Z,19.63
2022-10-21T04:42:10.625Z,21.70
2022-10-21T04:44:40.709Z,18.77
2022-10-21T04:47:13.500Z,20.33
2022-10-21T04:49:42.919Z,21.05
2022-10-21T04:52:12.305Z,20.50
2022-10-21T04:54:45.081Z,21.35
2022-10-21T04:57:18.140Z,21.27
2022-10-21T04:59:47.774Z,19.77
2022-10-21T05:02:26.206Z,22.67
2022-10-21T05:04:56.057Z,22.75
2022-10-21T05:07:25.715Z,20.05
2022-10-21T05:10:07.138Z,20.70
2022-10-21T05:12:37.102Z,19.30
2022-10-21T05:15:07.039Z,20.70
2022-10-21T05:17:37.168Z,20.85
2022-10-21T05:20:07.586Z,22.02
2022-10-21T05:22:38.859Z,22.23
2022-10-21T05:25:12.343Z,19.65
2022-10-21T05:27:41.522Z,19.55
2022-10-21T05:30:11.400Z,18.70
2022-10-21T05:32:41.852Z,20.27
2022-10-21T05:35:13.364Z,19.53
2022-10-21T05:37:42.884Z,19.80
2022-10-21T05:40:20.518Z,18.40
2022-10-21T05:42:51.334Z,18.65
2022-10-21T05:45:25.770Z,18.60
2022-10-21T05:47:56.806Z,19.30
2022-10-21T05:50:39.420Z,19.90
2022-10-21T05:53:14.754Z,18.13
2022-10-21T05:55:45.472Z,18.20
2022-10-21T05:58:14.605Z,16.70
2022-10-21T06:00:44.582Z,16.83
2022-10-21T06:03:14.208Z,18.67
2022-10-21T06:05:43.423Z,18.20
2022-10-21T06:08:13.326Z,18.63
2022-10-21T06:10:42.858Z,17.70
2022-10-21T06:13:13.469Z,17.10
2022-10-21T06:15:48.796Z,17.33
2022-10-21T06:18:20.908Z,16.35
2022-10-21T06:20:55.412Z,16.88
2022-10-21T06:23:42.889Z,14.57
2022-10-21T06:26:17.195Z,17.20
2022-10-21T06:28:55.971Z,16.10
2022-10-21T06:31:25.783Z,15.40
2022-10-21T06:33:55.676Z,15.73
2022-10-21T06:36:25.107Z,16.08
2022-10-21T06:38:56.283Z,15.88
2022-10-21T06:41:30.303Z,15.43
2022-10-21T06:44:05.704Z,14.50
2022-10-21T06:49:04.139Z,15.02
2022-10-21T06:51:36.240Z,15.15
2022-10-21T06:56:38.834Z,16.52
2022-10-21T06:59:15.030Z,15.82
2022-10-21T07:02:01.139Z,18.20
2022-10-21T07:04:31.328Z,17.55
2022-10-21T07:07:00.824Z,16.38
2022-10-21T07:09:30.830Z,15.85
2022-10-21T07:12:00.194Z,15.95
2022-10-21T07:14:31.050Z,15.98
2022-10-21T07:17:08.552Z,14.40
2022-10-21T07:19:39.680Z,15.90
2022-10-21T07:22:09.935Z,15.90
2022-10-21T07:24:41.638Z,14.52
2022-10-21T07:27:17.464Z,13.52
2022-10-21T07:29:54.000Z,13.52
2022-10-21T07:32:23.366Z,12.73
2022-10-21T07:34:54.939Z,15.18
2022-10-21T07:37:24.277Z,12.20
2022-10-21T07:39:58.597Z,14.15
2022-10-21T07:42:30.895Z,12.05
2022-10-21T07:45:05.610Z,12.02
2022-10-21T07:47:35.103Z,11.00
2022-10-21T07:50:05.396Z,12.02
2022-10-21T07:52:51.938Z,11.48
2022-10-21T07:55:37.711Z,14.25
2022-10-21T07:58:07.297Z,12.70
2022-10-21T08:00:38.386Z,12.65
2022-10-21T08:03:08.099Z,12.47
2022-10-21T08:05:41.874Z,12.27
2022-10-21T08:08:14.243Z,10.20
2022-10-21T08:10:47.065Z,10.10
2022-10-21T08:13:18.037Z,11.43
2022-10-21T08:15:51.265Z,12.90
2022-10-21T08:18:23.369Z,10.82
2022-10-21T08:23:26.563Z,9.75
2022-10-21T08:25:56.820Z,8.10
2022-10-21T08:28:27.001Z,8.20
2022-10-21T08:31:04.149Z,8.90
2022-10-21T08:33:34.188Z,9.27
2022-10-21T08:36:07.053Z,7.78
2022-10-21T08:38:36.946Z,7.45
2022-10-21T08:41:12.539Z,6.90
2022-10-21T08:43:45.334Z,7.18
2022-10-21T08:46:19.332Z,8.70
2022-10-21T08:48:51.125Z,6.22
2022-10-21T08:53:50.824Z,6.55
2022-10-21T08:56:20.291Z,6.38
2022-10-21T08:58:51.345Z,5.85
2022-10-21T09:01:25.873Z,6.05
2022-10-21T09:03:58.837Z,5.18
2022-10-21T09:06:30.082Z,4.95
2022-10-21T09:09:03.716Z,6.30
2022-10-21T09:11:41.179Z,7.28
2022-10-21T09:14:17.651Z,6.18
2022-10-21T09:16:52.745Z,5.75
2022-10-21T09:19:29.396Z,6.18
2022-10-21T09:22:22.879Z,7.40
2022-10-21T09:24:54.472Z,5.38
2022-10-21T09:27:32.265Z,6.93
2022-10-21T09:30:08.466Z,6.38
2022-10-21T09:32:40.376Z,5.40
2022-10-21T09:35:16.835Z,6.10
2022-10-21T09:37:47.542Z,4.68
2022-10-21T09:40:18.215Z,6.45
2022-10-21T09:42:52.812Z,6.07
2022-10-21T09:45:24.910Z,5.20
2022-10-21T09:47:57.776Z,4.43
2022-10-21T09:50:27.858Z,5.82
2022-10-21T09:53:00.183Z,6.97
2022-10-21T09:55:31.203Z,6.35
2022-10-21T09:58:01.689Z,6.10
2022-10-21T10:00:45.273Z,4.60
2022-10-21T10:03:30.791Z,6.90
2022-10-21T10:05:59.974Z,5.25
2022-10-21T10:08:34.247Z,5.47
2022-10-21T10:11:12.981Z,6.07
2022-10-21T10:13:43.387Z,5.03
2022-10-21T10:16:18.535Z,5.63
2022-10-21T10:18:49.144Z,6.20
2022-10-21T10:21:18.964Z,6.63
2022-10-21T10:23:49.394Z,7.15
2022-10-21T10:26:24.012Z,5.63
2022-10-21T10:28:54.718Z,5.07
2022-10-21T10:31:29.720Z,6.43
2022-10-21T10:34:01.581Z,6.15
2022-10-21T10:36:32.822Z,5.82
2022-10-21T10:39:02.834Z,7.07
2022-10-21T10:41:38.269Z,7.22
2022-10-21T10:44:14.236Z,11.18
2022-10-21T10:46:44.837Z,5.43
2022-10-21T10:49:23.758Z,5.30
2022-10-21T10:52:05.859Z,4.60
2022-10-21T10:54:35.878Z,5.15
2022-10-21T10:57:07.297Z,4.97
2022-10-21T10:59:42.791Z,5.35
2022-10-21T11:02:29.574Z,6.32
2022-10-21T11:05:22.120Z,5.75
2022-10-21T11:07:55.549Z,5.35
2022-10-21T11:10:35.363Z,5.65
2022-10-21T11:13:11.641Z,5.57
2022-10-21T11:15:58.794Z,5.00
2022-10-21T11:18:40.683Z,5.38
2022-10-21T11:21:24.093Z,6.65
2022-10-21T11:24:11.081Z,6.05
2022-10-21T11:26:53.326Z,5.43
2022-10-21T11:32:11.109Z,7.00
2022-10-21T11:34:48.501Z,4.95
2022-10-21T11:37:23.293Z,6.00
2022-10-21T11:39:56.581Z,6.28
2022-10-21T11:42:31.649Z,6.28
2022-10-21T11:45:17.064Z,5.95
2022-10-21T11:47:50.265Z,6.82
2022-10-21T11:50:22.624Z,9.00
2022-10-21T11:53:02.733Z,4.68
2022-10-21T11:55:38.897Z,5.50
2022-10-21T11:58:16.479Z,6.72
2022-10-21T12:00:51.027Z,4.63
2022-10-21T12:03:36.170Z,5.88
2022-10-21T12:06:13.133Z,6.20
2022-10-21T12:08:50.831Z,5.25
2022-10-21T12:11:26.893Z,6.05
2022-10-21T12:13:57.870Z,6.28
2022-10-21T12:16:29.436Z,12.02
2022-10-21T12:19:01.753Z,6.93
2022-10-21T12:21:32.050Z,5.35
2022-10-21T12:24:09.215Z,5.82
2022-10-21T12:26:43.329Z,6.32
2022-10-21T12:29:16.843Z,5.07
2022-10-21T12:31:50.854Z,5.45
2022-10-21T12:34:20.627Z,6.32
2022-10-21T12:36:54.412Z,5.32
2022-10-21T12:39:44.762Z,7.07
2022-10-21T12:42:16.917Z,6.18
2022-10-21T12:47:27.221Z,6.50
2022-10-21T12:50:19.842Z,6.23
2022-10-21T12:53:08.545Z,6.15
2022-10-21T12:55:41.244Z,5.78
2022-10-21T12:58:22.375Z,5.65
2022-10-21T13:00:53.938Z,6.88
2022-10-21T13:03:24.877Z,7.10
2022-10-21T13:06:03.315Z,5.72
2022-10-21T13:08:40.014Z,5.80
2022-10-21T13:11:24.180Z,5.30
2022-10-21T13:14:20.538Z,5.63
2022-10-21T13:16:53.734Z,5.95
2022-10-21T13:19:37.520Z,7.03
2022-10-21T13:22:13.134Z,6.00
2022-10-21T13:24:44.865Z,5.85
2022-10-21T13:27:28.807Z,5.25
2022-10-21T13:30:07.331Z,6.03
2022-10-21T13:32:38.851Z,5.97
2022-10-21T13:35:27.625Z,5.80
2022-10-21T13:37:59.489Z,6.43
2022-10-21T13:40:33.555Z,7.43
2022-10-21T13:43:08.396Z,6.70
2022-10-21T13:45:48.837Z,6.00
2022-10-21T13:48:27.395Z,5.95
2022-10-21T13:51:00.714Z,4.97
2022-10-21T13:53:36.002Z,7.95
2022-10-21T13:56:06.236Z,6.90
2022-10-21T13:58:41.350Z,5.28
2022-10-21T14:01:16.880Z,6.13
2022-10-21T14:06:30.910Z,7.32
2022-10-21T14:09:05.505Z,8.82
2022-10-21T14:11:37.516Z,5.65
2022-10-21T14:14:11.514Z,5.63
2022-10-21T14:16:45.432Z,6.95
2022-10-21T14:19:20.352Z,5.55
2022-10-21T14:21:53.993Z,5.63
2022-10-21T14:24:28.984Z,6.30
2022-10-21T14:27:00.689Z,6.78
2022-10-21T14:29:35.629Z,5.20
2022-10-21T14:32:06.147Z,7.13
2022-10-21T14:34:57.785Z,5.38
2022-10-21T14:37:28.358Z,5.28
2022-10-21T14:40:11.106Z,6.63
2022-10-21T14:42:50.969Z,6.57
2022-10-21T14:45:27.016Z,4.80
2022-10-21T14:48:01.904Z,6.70
2022-10-21T14:50:31.113Z,7.85
2022-10-21T14:53:02.202Z,7.20
2022-10-21T14:55:31.672Z,13.77
2022-10-21T14:58:13.088Z,7.25
2022-10-21T15:00:49.272Z,6.95
2022-10-21T15:03:37.582Z,8.15
2022-10-21T15:06:11.896Z,7.47
2022-10-21T15:08:48.593Z,5.10
2022-10-21T15:11:21.038Z,5.35
2022-10-21T15:14:01.149Z,6.35
2022-10-21T15:16:31.499Z,6.03
2022-10-21T15:19:01.008Z,7.70
2022-10-21T15:21:36.838Z,6.45
2022-10-21T15:24:08.443Z,9.45
2022-10-21T15:26:39.233Z,6.68
2022-10-21T15:29:15.245Z,6.22
2022-10-21T15:31:44.897Z,7.40
2022-10-21T15:34:15.403Z,5.47
2022-10-21T15:36:45.339Z,6.38
2022-10-21T15:39:15.920Z,4.95
2022-10-21T15:41:45.367Z,5.43
2022-10-21T15:44:22.240Z,7.30
2022-10-21T15:46:57.988Z,6.25
2022-10-21T15:49:28.445Z,5.60
2022-10-21T15:51:57.898Z,6.53
2022-10-21T15:54:28.675Z,5.47
2022-10-21T15:57:00.211Z,5.93
2022-10-21T15:59:32.193Z,6.47
2022-10-21T16:04:39.793Z,5.90
2022-10-21T16:07:19.220Z,6.15
2022-10-21T16:09:50.136Z,5.35
2022-10-21T16:12:21.791Z,7.20
2022-10-21T16:14:51.811Z,6.13
2022-10-21T16:17:21.484Z,5.85
2022-10-21T16:19:50.938Z,7.45
2022-10-21T16:22:21.776Z,7.25
2022-10-21T16:24:52.572Z,5.75
2022-10-21T16:27:31.217Z,6.05
2022-10-21T16:30:16.207Z,6.45
2022-10-21T16:32:48.697Z,6.25
2022-10-21T16:37:51.733Z,6.22
2022-10-21T16:40:24.218Z,8.07
2022-10-21T16:45:25.621Z,6.75
2022-10-21T16:47:56.823Z,8.98
2022-10-21T16:50:28.224Z,9.50
2022-10-21T16:53:01.943Z,8.32
2022-10-21T16:55:33.409Z,8.57
2022-10-21T17:00:38.627Z,7.78
2022-10-21T17:03:12.136Z,9.82
2022-10-21T17:05:42.062Z,8.65
2022-10-21T17:08:11.752Z,15.80
2022-10-21T17:10:45.592Z,7.70
2022-10-21T17:13:15.331Z,7.75
2022-10-21T17:15:44.592Z,7.80
2022-10-21T17:18:17.423Z,8.00
2022-10-21T17:20:46.813Z,9.02
2022-10-21T17:23:16.062Z,8.00
2022-10-21T17:25:49.319Z,8.48
2022-10-21T17:28:18.627Z,7.53
2022-10-21T17:30:48.239Z,9.43
2022-10-21T17:33:19.020Z,8.80
2022-10-21T17:35:48.904Z,8.40
2022-10-21T17:38:20.790Z,8.20
2022-10-21T17:40:51.624Z,6.82
2022-10-21T17:43:22.563Z,8.77
2022-10-21T17:45:52.404Z,7.47
2022-10-21T17:48:22.417Z,8.27
2022-10-21T17:50:56.013Z,7.43
2022-10-21T17:53:35.082Z,8.80
2022-10-21T17:56:07.071Z,8.55
2022-10-21T17:58:38.125Z,7.88
2022-10-21T18:01:13.499Z,7.57
2022-10-21T18:03:45.568Z,6.88
2022-10-21T18:06:18.766Z,7.22
2022-10-21T18:08:49.606Z,8.48
2022-10-21T18:11:21.570Z,8.32
2022-10-21T18:16:25.218Z,8.20
2022-10-21T18:19:01.781Z,10.82
2022-10-21T18:21:33.777Z,8.23
2022-10-21T18:24:10.040Z,7.18
2022-10-21T18:26:49.935Z,9.88
2022-10-21T18:29:25.311Z,7.88
2022-10-21T18:31:55.001Z,7.70
2022-10-21T18:34:25.412Z,8.38
2022-10-21T18:36:59.753Z,9.15
2022-10-21T18:39:35.751Z,9.07
2022-10-21T18:42:10.330Z,8.52
2022-10-21T18:44:45.795Z,8.90
2022-10-21T18:49:50.000Z,10.23
2022-10-21T18:52:19.486Z,7.50
2022-10-21T18:55:12.816Z,8.55
2022-10-21T18:57:54.529Z,8.63
2022-10-21T19:00:54.308Z,8.27
2022-10-21T19:03:40.828Z,9.30
2022-10-21T19:06:17.034Z,9.50
2022-10-21T19:08:49.867Z,7.97
2022-10-21T19:11:20.308Z,6.57
2022-10-21T19:13:51.114Z,7.75
2022-10-21T19:16:20.771Z,8.90
2022-10-21T19:18:51.285Z,7.60
2022-10-21T19:21:22.299Z,7.95
2022-10-21T19:23:52.720Z,6.82
2022-10-21T19:26:23.248Z,6.35
2022-10-21T19:28:54.172Z,5.63
2022-10-21T19:31:23.491Z,8.60
2022-10-21T19:33:54.246Z,6.85
2022-10-21T19:36:23.998Z,8.35
2022-10-21T19:38:53.275Z,6.85
2022-10-21T19:41:23.903Z,9.02
2022-10-21T19:43:58.751Z,6.95
2022-10-21T19:46:28.851Z,7.00
2022-10-21T19:48:58.220Z,8.13
2022-10-21T19:51:27.666Z,7.65
2022-10-21T19:53:57.105Z,7.15
2022-10-21T19:56:30.795Z,6.85
2022-10-21T19:59:03.307Z,7.70
2022-10-21T20:04:03.250Z,6.43
2022-10-21T20:06:33.069Z,6.95
2022-10-21T20:09:03.593Z,7.03
2022-10-21T20:11:32.805Z,6.40
2022-10-21T20:14:04.378Z,7.53
2022-10-21T20:16:34.957Z,7.63
2022-10-21T20:19:05.578Z,7.38
2022-10-21T20:21:35.767Z,6.43
2022-10-21T20:24:05.095Z,6.93
2022-10-21T20:26:34.768Z,6.30
2022-10-21T20:29:05.680Z,5.72
2022-10-21T20:31:35.617Z,7.30
2022-10-21T20:34:05.033Z,5.35
2022-10-21T20:36:34.875Z,7.00
2022-10-21T20:39:21.542Z,6.38
2022-10-21T20:41:56.129Z,6.50
2022-10-21T20:44:27.204Z,7.82
2022-10-21T20:46:56.621Z,8.48
2022-10-21T20:49:26.012Z,6.28
2022-10-21T20:51:55.655Z,6.07
2022-10-21T20:54:29.675Z,6.88
2022-10-21T20:57:00.048Z,7.18
2022-10-21T20:59:30.795Z,6.40
2022-10-21T21:02:00.390Z,6.28
2022-10-21T21:04:32.461Z,7.53
2022-10-21T21:07:04.110Z,7.45
2022-10-21T21:09:57.832Z,5.78
2022-10-21T21:12:30.726Z,7.13
2022-10-21T21:15:02.336Z,6.93
2022-10-21T21:17:33.134Z,4.85
2022-10-21T21:20:02.641Z,6.93
2022-10-21T21:22:32.062Z,5.93
2022-10-21T21:25:01.676Z,7.93
2022-10-21T21:27:32.219Z,6.13
2022-10-21T21:32:35.991Z,5.55
2022-10-21T21:35:06.272Z,6.10
2022-10-21T21:37:36.670Z,6.70
2022-10-21T21:40:06.570Z,5.82
2022-10-21T21:42:36.208Z,7.35
2022-10-21T21:45:09.706Z,7.05
2022-10-21T21:47:40.080Z,6.85
2022-10-21T21:50:13.619Z,6.47
2022-10-21T21:52:43.882Z,7.20
2022-10-21T21:55:14.883Z,8.10
2022-10-21T21:57:44.375Z,8.25
2022-10-21T22:00:16.165Z,7.38
2022-10-21T22:02:48.562Z,8.35
2022-10-21T22:05:26.139Z,7.75
2022-10-21T22:07:58.860Z,9.15
2022-10-21T22:10:31.677Z,8.32
2022-10-21T22:13:03.087Z,9.50
2022-10-21T22:15:53.620Z,7.03
2022-10-21T22:18:24.060Z,8.18
2022-10-21T22:20:59.649Z,7.53
2022-10-21T22:23:29.198Z,6.03
2022-10-21T22:26:04.910Z,7.95
2022-10-21T22:28:34.640Z,7.75
2022-10-21T22:31:06.701Z,6.80
2022-10-21T22:33:36.806Z,6.47
2022-10-21T22:36:07.278Z,7.60
2022-10-21T22:38:37.615Z,6.10
2022-10-21T22:41:09.931Z,6.18
2022-10-21T22:43:43.127Z,7.80
2022-10-21T22:46:29.302Z,6.45
2022-10-21T22:49:04.940Z,8.38
2022-10-21T22:51:34.519Z,6.55
2022-10-21T22:54:03.729Z,8.23
2022-10-21T22:56:34.333Z,6.82
2022-10-21T22:59:03.645Z,8.10
2022-10-21T23:01:35.311Z,6.43
2022-10-21T23:04:04.672Z,6.88
2022-10-21T23:06:34.184Z,7.30
2022-10-21T23:09:03.969Z,7.20
2022-10-21T23:11:33.202Z,6.30
2022-10-21T23:14:07.905Z,7.85
2022-10-21T23:16:42.787Z,7.07
2022-10-21T23:19:18.030Z,6.68
2022-10-21T23:21:50.010Z,7.05
2022-10-21T23:24:21.453Z,6.25
2022-10-21T23:26:51.133Z,6.97
2022-10-21T23:29:20.358Z,6.38
2022-10-21T23:31:51.405Z,6.70
2022-10-21T23:34:20.642Z,5.95
2022-10-21T23:36:49.803Z,6.40
2022-10-21T23:39:19.805Z,6.18
2022-10-21T23:41:49.066Z,5.53
2022-10-21T23:44:19.209Z,6.18
2022-10-21T23:46:48.358Z,7.63
2022-10-21T23:49:19.010Z,6.15
2022-10-21T23:51:54.659Z,5.78
2022-10-21T23:54:24.257Z,5.43
2022-10-21T23:56:53.748Z,7.45
2022-10-21T23:59:23.173Z,5.07
